createdAt,value
2019-05-14T00:00:46.308Z,49.22
2019-05-14T00:01:51.404Z,49.42
2019-05-14T00:02:55.507Z,49.51
2019-05-14T00:03:58.966Z,49.72
2019-05-14T00:05:03.091Z,49.69
2019-05-14T00:06:06.517Z,49.73
2019-05-14T00:07:11.595Z,49.72
2019-05-14T00:08:17.555Z,49.85
2019-05-14T00:09:21.506Z,50.04
2019-05-14T00:10:24.974Z,50.06
2019-05-14T00:11:31.215Z,50.21
2019-05-14T00:12:34.111Z,50.39
2019-05-14T00:13:38.116Z,50.37
2019-05-14T00:14:43.729Z,50.40
2019-05-14T00:15:47.355Z,50.61
2019-05-14T00:16:51.400Z,50.54
2019-05-14T00:17:55.422Z,50.46
2019-05-14T00:18:59.018Z,50.66
2019-05-14T00:20:09.712Z,50.70
2019-05-14T00:21:08.228Z,50.79
2019-05-14T00:22:12.208Z,50.84
2019-05-14T00:23:15.636Z,50.80
2019-05-14T00:24:21.619Z,50.76
2019-05-14T00:25:24.864Z,50.76
2019-05-14T00:26:28.922Z,50.61
2019-05-14T00:27:32.390Z,51.00
2019-05-14T00:28:36.397Z,50.94
2019-05-14T00:29:41.758Z,50.76
2019-05-14T00:30:45.691Z,50.96
2019-05-14T00:31:51.530Z,50.71
2019-05-14T00:32:54.927Z,50.71
2019-05-14T00:33:58.438Z,50.88
2019-05-14T00:35:02.511Z,50.79
2019-05-14T00:36:05.960Z,50.79
2019-05-14T00:37:11.499Z,50.92
2019-05-14T00:38:15.107Z,50.90
2019-05-14T00:39:21.247Z,51.17
2019-05-14T00:40:24.267Z,51.29
2019-05-14T00:41:28.249Z,51.29
2019-05-14T00:42:32.051Z,51.44
2019-05-14T00:43:36.031Z,51.59
2019-05-14T00:44:51.640Z,52.13
2019-05-14T00:45:45.263Z,51.72
2019-05-14T00:46:48.690Z,51.72
2019-05-14T00:47:52.765Z,51.79
2019-05-14T00:48:56.202Z,51.36
2019-05-14T00:50:02.260Z,51.55
2019-05-14T00:51:05.423Z,51.55
2019-05-14T00:52:11.515Z,51.69
2019-05-14T00:53:14.628Z,51.74
2019-05-14T00:54:18.634Z,51.55
2019-05-14T00:55:22.476Z,51.55
2019-05-14T00:56:26.578Z,51.97
2019-05-14T00:57:31.581Z,51.80
2019-05-14T00:58:35.473Z,52.00
2019-05-14T00:59:38.916Z,52.05
2019-05-14T01:00:43.188Z,51.94
2019-05-14T01:01:46.692Z,51.91
2019-05-14T01:02:51.835Z,51.81
2019-05-14T01:03:55.453Z,51.75
2019-05-14T01:05:01.715Z,51.91
2019-05-14T01:06:04.748Z,52.27
2019-05-14T01:07:08.822Z,52.28
2019-05-14T01:08:12.256Z,52.28
2019-05-14T01:09:16.274Z,52.22
2019-05-14T01:10:21.992Z,52.22
2019-05-14T01:11:25.566Z,52.43
2019-05-14T01:12:28.991Z,52.41
2019-05-14T01:13:32.979Z,52.35
2019-05-14T01:14:36.432Z,52.35
2019-05-14T01:15:41.474Z,52.91
2019-05-14T01:16:45.036Z,52.91
2019-05-14T01:17:51.636Z,52.96
2019-05-14T01:18:55.158Z,52.82
2019-05-14T01:19:59.301Z,52.84
2019-05-14T01:21:02.811Z,52.95
2019-05-14T01:22:06.925Z,53.06
2019-05-14T01:23:11.525Z,53.17
2019-05-14T01:24:15.596Z,53.28
2019-05-14T01:25:19.043Z,53.28
2019-05-14T01:26:23.043Z,53.11
2019-05-14T01:27:26.553Z,53.30
2019-05-14T01:28:32.152Z,53.23
2019-05-14T01:29:35.816Z,53.16
2019-05-14T01:30:41.114Z,53.02
2019-05-14T01:31:44.703Z,53.02
2019-05-14T01:32:50.983Z,53.26
2019-05-14T01:33:53.903Z,53.06
2019-05-14T01:34:57.984Z,53.16
2019-05-14T01:36:02.061Z,53.49
2019-05-14T01:37:06.284Z,53.46
2019-05-14T01:38:11.474Z,53.07
2019-05-14T01:39:15.650Z,53.07
2019-05-14T01:40:19.163Z,53.07
2019-05-14T01:41:23.155Z,53.34
2019-05-14T01:42:26.580Z,53.30
2019-05-14T01:43:31.501Z,53.19
2019-05-14T01:44:35.079Z,53.36
2019-05-14T01:45:41.554Z,53.68
2019-05-14T01:46:44.247Z,53.68
2019-05-14T01:47:48.365Z,53.41
2019-05-14T01:48:52.229Z,53.33
2019-05-14T01:49:56.227Z,53.33
2019-05-14T01:51:01.594Z,53.16
2019-05-14T01:52:05.612Z,53.14
2019-05-14T01:53:11.397Z,53.32
2019-05-14T01:54:14.949Z,53.29
2019-05-14T01:55:18.392Z,53.50
2019-05-14T01:56:22.446Z,53.58
2019-05-14T01:57:25.948Z,53.75
2019-05-14T01:58:31.121Z,53.69
2019-05-14T01:59:34.750Z,53.56
2019-05-14T02:00:38.607Z,53.64
2019-05-14T02:01:42.073Z,53.54
2019-05-14T02:02:46.131Z,53.67
2019-05-14T02:03:51.633Z,53.63
2019-05-14T02:04:55.396Z,53.63
2019-05-14T02:06:01.188Z,54.00
2019-05-14T02:07:04.764Z,54.00
2019-05-14T02:08:08.196Z,53.98
2019-05-14T02:09:12.259Z,53.89
2019-05-14T02:10:16.298Z,53.82
2019-05-14T02:11:21.385Z,53.68
2019-05-14T02:12:24.980Z,53.68
2019-05-14T02:13:28.972Z,53.70
2019-05-14T02:14:32.535Z,53.65
2019-05-14T02:15:39.953Z,53.69
2019-05-14T02:16:42.412Z,53.61
2019-05-14T02:17:46.433Z,53.53
2019-05-14T02:18:52.061Z,53.69
2019-05-14T02:19:55.666Z,53.69
2019-05-14T02:21:01.347Z,53.57
2019-05-14T02:22:04.900Z,53.61
2019-05-14T02:23:08.314Z,53.79
2019-05-14T02:24:12.298Z,53.79
2019-05-14T02:25:15.802Z,53.76
2019-05-14T02:26:21.886Z,53.66
2019-05-14T02:27:25.025Z,53.61
2019-05-14T02:28:31.301Z,54.17
2019-05-14T02:29:34.182Z,54.17
2019-05-14T02:30:48.043Z,53.78
2019-05-14T02:31:43.338Z,53.87
2019-05-14T02:32:49.791Z,53.78
2019-05-14T02:33:52.497Z,53.80
2019-05-14T02:34:58.974Z,53.89
2019-05-14T02:36:01.720Z,53.76
2019-05-14T02:37:09.000Z,53.86
2019-05-14T02:38:11.028Z,53.82
2019-05-14T02:39:15.016Z,53.43
2019-05-14T02:40:20.209Z,53.43
2019-05-14T02:41:24.562Z,53.83
2019-05-14T02:42:28.986Z,53.84
2019-05-14T02:43:33.160Z,53.84
2019-05-14T02:44:40.293Z,53.73
2019-05-14T02:46:00.822Z,53.89
2019-05-14T02:46:50.575Z,53.89
2019-05-14T02:47:53.962Z,53.61
2019-05-14T02:48:59.448Z,53.90
2019-05-14T02:50:03.274Z,54.24
2019-05-14T02:51:10.218Z,54.12
2019-05-14T02:52:12.407Z,54.14
2019-05-14T02:53:19.521Z,54.33
2019-05-14T02:54:21.591Z,54.33
2019-05-14T02:55:25.097Z,54.12
2019-05-14T02:56:29.746Z,54.16
2019-05-14T02:57:33.192Z,54.22
2019-05-14T02:58:40.109Z,54.18
2019-05-14T02:59:42.537Z,54.02
2019-05-14T03:00:49.076Z,54.01
2019-05-14T03:01:51.743Z,54.22
2019-05-14T03:02:55.799Z,53.97
2019-05-14T03:03:59.915Z,54.18
2019-05-14T03:05:04.983Z,54.27
2019-05-14T03:06:09.498Z,54.39
2019-05-14T03:07:13.837Z,54.39
2019-05-14T03:08:19.856Z,54.54
2019-05-14T03:09:23.390Z,54.35
2019-05-14T03:10:29.938Z,54.15
2019-05-14T03:11:32.667Z,54.07
2019-05-14T03:12:39.540Z,54.28
2019-05-14T03:13:42.191Z,54.29
2019-05-14T03:14:45.784Z,54.29
2019-05-14T03:15:50.219Z,54.29
2019-05-14T03:16:53.864Z,54.31
2019-05-14T03:17:59.899Z,54.31
2019-05-14T03:19:03.232Z,54.41
2019-05-14T03:20:09.323Z,54.60
2019-05-14T03:21:12.844Z,54.65
2019-05-14T03:22:25.800Z,54.46
2019-05-14T03:23:23.277Z,54.53
2019-05-14T03:24:28.890Z,54.59
2019-05-14T03:25:32.629Z,54.64
2019-05-14T03:26:39.469Z,54.63
2019-05-14T03:27:41.936Z,54.62
2019-05-14T03:28:49.259Z,54.62
2019-05-14T03:29:51.286Z,55.18
2019-05-14T03:30:55.366Z,55.44
2019-05-14T03:32:03.260Z,55.19
2019-05-14T03:33:04.644Z,54.99
2019-05-14T03:34:13.600Z,55.02
2019-05-14T03:35:14.621Z,55.05
2019-05-14T03:36:25.987Z,54.98
2019-05-14T03:37:24.654Z,55.15
2019-05-14T03:38:29.583Z,55.24
2019-05-14T03:39:33.947Z,55.21
2019-05-14T03:40:39.949Z,55.11
2019-05-14T03:41:43.411Z,55.18
2019-05-14T03:42:49.027Z,55.14
2019-05-14T03:43:52.829Z,55.18
2019-05-14T03:44:59.373Z,55.18
2019-05-14T03:46:02.198Z,55.57
2019-05-14T03:47:09.934Z,55.57
2019-05-14T03:48:11.440Z,55.39
2019-05-14T03:49:14.946Z,55.15
2019-05-14T03:50:19.329Z,55.15
2019-05-14T03:51:22.910Z,55.28
2019-05-14T03:52:29.179Z,55.38
2019-05-14T03:53:50.776Z,55.78
2019-05-14T03:54:40.593Z,55.59
2019-05-14T03:55:43.571Z,55.49
2019-05-14T03:56:49.745Z,55.35
2019-05-14T03:57:53.039Z,55.35
2019-05-14T03:58:59.999Z,55.25
2019-05-14T04:00:02.395Z,55.22
2019-05-14T04:01:09.606Z,55.18
2019-05-14T04:02:11.989Z,55.34
2019-05-14T04:03:19.531Z,55.34
2019-05-14T04:04:21.706Z,55.28
2019-05-14T04:05:29.248Z,55.38
2019-05-14T04:06:31.515Z,55.47
2019-05-14T04:07:39.363Z,55.44
2019-05-14T04:08:44.162Z,55.44
2019-05-14T04:09:49.593Z,55.67
2019-05-14T04:10:55.338Z,55.68
2019-05-14T04:12:02.438Z,55.69
2019-05-14T04:13:09.023Z,55.59
2019-05-14T04:14:14.352Z,55.55
2019-05-14T04:15:19.256Z,55.63
2019-05-14T04:16:24.509Z,55.65
2019-05-14T04:17:37.016Z,55.71
2019-05-14T04:18:40.517Z,55.65
2019-05-14T04:19:45.434Z,55.69
2019-05-14T04:20:50.624Z,55.87
2019-05-14T04:21:55.502Z,55.96
2019-05-14T04:23:01.294Z,55.85
2019-05-14T04:24:04.902Z,56.06
2019-05-14T04:25:11.185Z,56.08
2019-05-14T04:26:20.034Z,56.14
2019-05-14T04:27:25.428Z,56.13
2019-05-14T04:28:31.244Z,55.83
2019-05-14T04:29:39.551Z,55.77
2019-05-14T04:30:45.167Z,55.69
2019-05-14T04:31:50.147Z,55.62
2019-05-14T04:32:55.803Z,55.76
2019-05-14T04:34:01.928Z,55.78
2019-05-14T04:35:05.791Z,55.87
2019-05-14T04:36:10.259Z,55.93
2019-05-14T04:37:14.313Z,55.78
2019-05-14T04:38:20.220Z,55.69
2019-05-14T04:39:23.870Z,55.53
2019-05-14T04:40:29.641Z,55.55
2019-05-14T04:41:33.334Z,55.55
2019-05-14T04:42:40.243Z,55.46
2019-05-14T04:43:42.855Z,55.38
2019-05-14T04:44:49.979Z,55.03
2019-05-14T04:45:52.286Z,54.95
2019-05-14T04:46:56.276Z,55.04
2019-05-14T04:48:00.381Z,54.85
2019-05-14T04:49:04.685Z,54.81
2019-05-14T04:50:10.619Z,55.28
2019-05-14T04:51:14.131Z,55.28
2019-05-14T04:52:20.582Z,55.09
2019-05-14T04:53:23.481Z,54.94
2019-05-14T04:54:30.083Z,54.88
2019-05-14T04:55:32.834Z,54.82
2019-05-14T04:56:39.480Z,54.38
2019-05-14T04:57:42.034Z,54.43
2019-05-14T04:58:49.264Z,54.49
2019-05-14T04:59:51.444Z,54.69
2019-05-14T05:00:54.880Z,54.69
2019-05-14T05:02:00.046Z,54.63
2019-05-14T05:03:08.233Z,54.71
2019-05-14T05:04:09.774Z,54.74
2019-05-14T05:05:13.550Z,54.93
2019-05-14T05:06:19.190Z,54.93
2019-05-14T05:07:22.767Z,54.80
2019-05-14T05:08:30.042Z,54.94
2019-05-14T05:09:31.998Z,54.68
2019-05-14T05:10:35.974Z,54.47
2019-05-14T05:11:39.811Z,54.38
2019-05-14T05:12:43.819Z,54.21
2019-05-14T05:13:48.701Z,54.11
2019-05-14T05:14:52.835Z,54.16
2019-05-14T05:15:59.116Z,54.23
2019-05-14T05:17:01.986Z,54.03
2019-05-14T05:18:05.581Z,54.04
2019-05-14T05:19:10.390Z,53.94
2019-05-14T05:20:14.192Z,53.79
2019-05-14T05:21:19.247Z,53.97
2019-05-14T05:22:22.882Z,53.90
2019-05-14T05:23:28.211Z,53.73
2019-05-14T05:24:31.965Z,53.77
2019-05-14T05:25:38.312Z,53.40
2019-05-14T05:26:41.259Z,53.37
2019-05-14T05:27:45.314Z,53.37
2019-05-14T05:29:02.358Z,53.40
2019-05-14T05:29:54.599Z,53.03
2019-05-14T05:30:58.697Z,53.07
2019-05-14T05:32:02.661Z,52.98
2019-05-14T05:33:06.130Z,52.80
2019-05-14T05:34:10.121Z,52.87
2019-05-14T05:35:13.704Z,52.70
2019-05-14T05:36:18.493Z,52.67
2019-05-14T05:37:22.079Z,52.71
2019-05-14T05:38:26.101Z,52.76
2019-05-14T05:39:29.593Z,52.75
2019-05-14T05:40:33.653Z,52.72
2019-05-14T05:41:38.492Z,52.99
2019-05-14T05:42:42.623Z,53.02
2019-05-14T05:43:48.325Z,52.53
2019-05-14T05:44:51.794Z,52.61
2019-05-14T05:45:55.325Z,52.51
2019-05-14T05:46:59.842Z,52.77
2019-05-14T05:48:03.392Z,52.77
2019-05-14T05:49:08.083Z,52.64
2019-05-14T05:50:11.646Z,52.63
2019-05-14T05:51:18.412Z,52.70
2019-05-14T05:52:20.884Z,52.03
2019-05-14T05:53:24.897Z,52.03
2019-05-14T05:54:29.202Z,52.15
2019-05-14T05:55:33.421Z,52.15
2019-05-14T05:56:38.739Z,51.76
2019-05-14T05:57:42.729Z,51.91
2019-05-14T05:58:48.596Z,51.54
2019-05-14T05:59:51.919Z,51.55
2019-05-14T06:00:55.399Z,51.43
2019-05-14T06:01:59.495Z,51.46
2019-05-14T06:03:03.039Z,51.23
2019-05-14T06:04:08.737Z,51.28
2019-05-14T06:05:12.327Z,51.07
2019-05-14T06:06:16.352Z,50.90
2019-05-14T06:07:19.850Z,50.93
2019-05-14T06:08:23.836Z,50.85
2019-05-14T06:09:28.641Z,50.72
2019-05-14T06:10:32.830Z,50.93
2019-05-14T06:11:38.108Z,50.97
2019-05-14T06:12:42.132Z,51.06
2019-05-14T06:13:48.301Z,50.54
2019-05-14T06:14:51.318Z,50.54
2019-05-14T06:15:54.755Z,49.98
2019-05-14T06:16:59.229Z,49.98
2019-05-14T06:18:14.074Z,50.10
2019-05-14T06:19:08.518Z,50.21
2019-05-14T06:20:12.208Z,49.65
2019-05-14T06:21:18.705Z,49.38
2019-05-14T06:22:21.425Z,48.83
2019-05-14T06:23:25.438Z,48.83
2019-05-14T06:24:30.588Z,48.61
2019-05-14T06:25:34.760Z,48.96
2019-05-14T06:26:38.511Z,48.94
2019-05-14T06:27:42.678Z,48.94
2019-05-14T06:28:48.434Z,48.70
2019-05-14T06:29:54.426Z,48.78
2019-05-14T06:30:58.925Z,48.81
2019-05-14T06:32:02.745Z,48.77
2019-05-14T06:33:09.018Z,48.73
2019-05-14T06:34:12.059Z,48.51
2019-05-14T06:35:15.665Z,48.40
2019-05-14T06:36:19.920Z,48.23
2019-05-14T06:37:23.360Z,48.21
2019-05-14T06:38:29.431Z,48.23
2019-05-14T06:39:32.515Z,47.80
2019-05-14T06:40:39.269Z,47.18
2019-05-14T06:41:43.022Z,46.92
2019-05-14T06:42:48.612Z,46.59
2019-05-14T06:43:52.132Z,47.06
2019-05-14T06:44:58.411Z,47.04
2019-05-14T06:46:01.385Z,47.02
2019-05-14T06:47:05.464Z,47.03
2019-05-14T06:48:09.034Z,46.78
2019-05-14T06:49:13.016Z,46.99
2019-05-14T06:50:19.039Z,46.94
2019-05-14T06:51:22.598Z,46.84
2019-05-14T06:52:26.070Z,46.91
2019-05-14T06:53:30.047Z,47.12
2019-05-14T06:54:33.490Z,46.93
2019-05-14T06:55:39.332Z,46.92
2019-05-14T06:56:42.788Z,47.19
2019-05-14T06:57:48.036Z,47.32
2019-05-14T06:58:51.622Z,47.40
2019-05-14T06:59:55.601Z,47.66
2019-05-14T07:00:59.295Z,46.93
2019-05-14T07:02:03.288Z,47.12
2019-05-14T07:03:08.957Z,46.44
2019-05-14T07:04:12.444Z,46.74
2019-05-14T07:05:16.115Z,46.98
2019-05-14T07:06:20.171Z,47.06
2019-05-14T07:07:23.631Z,46.98
2019-05-14T07:08:28.443Z,47.17
2019-05-14T07:09:32.161Z,47.09
2019-05-14T07:10:36.180Z,47.13
2019-05-14T07:11:39.607Z,47.23
2019-05-14T07:12:43.608Z,47.02
2019-05-14T07:13:49.207Z,46.40
2019-05-14T07:14:53.023Z,46.51
2019-05-14T07:15:58.390Z,46.76
2019-05-14T07:17:02.324Z,46.88
2019-05-14T07:18:08.477Z,46.58
2019-05-14T07:19:11.536Z,46.51
2019-05-14T07:20:15.210Z,46.64
2019-05-14T07:21:19.281Z,46.16
2019-05-14T07:22:22.776Z,45.98
2019-05-14T07:23:28.911Z,45.24
2019-05-14T07:24:31.971Z,44.54
2019-05-14T07:25:35.967Z,44.60
2019-05-14T07:26:39.464Z,44.70
2019-05-14T07:27:43.546Z,44.88
2019-05-14T07:28:48.837Z,44.87
2019-05-14T07:29:52.707Z,44.57
2019-05-14T07:30:59.030Z,45.03
2019-05-14T07:32:01.845Z,45.18
2019-05-14T07:33:05.374Z,44.51
2019-05-14T07:34:09.370Z,44.04
2019-05-14T07:35:13.050Z,44.26
2019-05-14T07:36:18.871Z,44.37
2019-05-14T07:37:22.227Z,44.70
2019-05-14T07:38:28.404Z,44.29
2019-05-14T07:39:31.380Z,44.85
2019-05-14T07:40:38.600Z,44.29
2019-05-14T07:41:40.627Z,44.07
2019-05-14T07:42:44.685Z,44.21
2019-05-14T07:43:48.400Z,43.67
2019-05-14T07:44:52.506Z,43.17
2019-05-14T07:45:58.057Z,43.08
2019-05-14T07:47:01.727Z,43.31
2019-05-14T07:48:05.280Z,42.38
2019-05-14T07:49:11.932Z,42.81
2019-05-14T07:50:14.933Z,43.10
2019-05-14T07:51:19.218Z,42.09
2019-05-14T07:52:22.649Z,42.56
2019-05-14T07:53:36.169Z,43.07
2019-05-14T07:54:31.819Z,43.17
2019-05-14T07:55:38.326Z,42.93
2019-05-14T07:56:40.966Z,42.94
2019-05-14T07:57:44.957Z,43.36
2019-05-14T07:58:49.064Z,43.21
2019-05-14T07:59:53.351Z,43.01
2019-05-14T08:00:58.596Z,43.09
2019-05-14T08:02:02.523Z,42.31
2019-05-14T08:03:08.085Z,42.27
2019-05-14T08:04:12.004Z,42.36
2019-05-14T08:05:17.947Z,42.62
2019-05-14T08:06:21.609Z,42.64
2019-05-14T08:07:25.057Z,42.54
2019-05-14T08:08:29.421Z,41.95
2019-05-14T08:09:32.936Z,41.62
2019-05-14T08:10:39.035Z,41.16
2019-05-14T08:11:42.178Z,41.22
2019-05-14T08:12:48.336Z,40.53
2019-05-14T08:13:51.383Z,39.44
2019-05-14T08:15:13.393Z,39.81
2019-05-14T08:16:01.218Z,39.09
2019-05-14T08:17:05.293Z,39.19
2019-05-14T08:18:08.738Z,39.56
2019-05-14T08:19:24.380Z,39.61
2019-05-14T08:20:18.730Z,39.55
2019-05-14T08:21:22.757Z,39.72
2019-05-14T08:22:26.202Z,39.34
2019-05-14T08:23:29.977Z,38.54
2019-05-14T08:24:33.428Z,37.58
2019-05-14T08:25:39.043Z,38.10
2019-05-14T08:26:44.103Z,38.34
2019-05-14T08:27:48.378Z,38.63
2019-05-14T08:28:51.925Z,39.08
2019-05-14T08:29:55.912Z,37.53
2019-05-14T08:30:59.347Z,37.69
2019-05-14T08:32:03.364Z,38.11
2019-05-14T08:33:08.768Z,37.76
2019-05-14T08:34:12.513Z,38.38
2019-05-14T08:35:18.401Z,38.56
2019-05-14T08:36:21.853Z,38.96
2019-05-14T08:37:27.843Z,39.08
2019-05-14T08:38:31.223Z,39.26
2019-05-14T08:39:34.729Z,40.00
2019-05-14T08:40:38.888Z,40.38
2019-05-14T08:41:42.389Z,39.97
2019-05-14T08:42:46.376Z,39.98
2019-05-14T08:43:49.891Z,39.75
2019-05-14T08:44:53.899Z,37.87
2019-05-14T08:45:58.700Z,37.94
2019-05-14T08:47:03.012Z,37.51
2019-05-14T08:48:09.000Z,37.63
2019-05-14T08:49:12.340Z,37.99
2019-05-14T08:50:18.807Z,37.72
2019-05-14T08:51:22.832Z,38.26
2019-05-14T08:52:28.598Z,37.73
2019-05-14T08:53:31.989Z,38.33
2019-05-14T08:54:35.549Z,38.39
2019-05-14T08:55:39.337Z,38.38
2019-05-14T08:56:42.858Z,38.17
2019-05-14T08:57:48.960Z,38.28
2019-05-14T08:58:52.006Z,38.54
2019-05-14T08:59:59.151Z,39.05
2019-05-14T09:01:01.304Z,39.34
2019-05-14T09:02:06.525Z,39.61
2019-05-14T09:03:10.556Z,39.48
2019-05-14T09:04:14.559Z,39.16
2019-05-14T09:05:18.415Z,39.23
2019-05-14T09:06:22.395Z,39.70
2019-05-14T09:07:25.915Z,39.30
2019-05-14T09:08:29.908Z,39.93
2019-05-14T09:09:33.340Z,41.25
2019-05-14T09:10:40.012Z,42.58
2019-05-14T09:11:45.408Z,43.06
2019-05-14T09:12:49.080Z,44.01
2019-05-14T09:13:52.697Z,44.40
2019-05-14T09:14:58.887Z,45.23
2019-05-14T09:16:01.916Z,45.28
2019-05-14T09:17:05.921Z,45.85
2019-05-14T09:18:11.697Z,46.01
2019-05-14T09:19:15.216Z,46.28
2019-05-14T09:20:18.941Z,46.40
2019-05-14T09:21:22.947Z,47.01
2019-05-14T09:22:28.761Z,47.26
2019-05-14T09:23:32.135Z,46.97
2019-05-14T09:24:38.454Z,46.78
2019-05-14T09:25:46.934Z,46.74
2019-05-14T09:26:48.393Z,46.72
2019-05-14T09:27:52.414Z,46.66
2019-05-14T09:28:55.863Z,46.55
2019-05-14T09:29:59.868Z,46.80
2019-05-14T09:31:03.313Z,47.16
2019-05-14T09:32:09.552Z,46.85
2019-05-14T09:33:12.473Z,47.19
2019-05-14T09:34:16.459Z,46.86
2019-05-14T09:35:19.922Z,46.66
2019-05-14T09:36:24.461Z,45.88
2019-05-14T09:37:28.862Z,46.25
2019-05-14T09:38:32.993Z,45.42
2019-05-14T09:39:38.539Z,45.25
2019-05-14T09:40:42.201Z,45.20
2019-05-14T09:41:48.044Z,45.59
2019-05-14T09:42:51.515Z,45.23
2019-05-14T09:43:55.035Z,45.09
2019-05-14T09:44:59.707Z,44.70
2019-05-14T09:46:03.146Z,44.68
2019-05-14T09:47:08.471Z,44.73
2019-05-14T09:48:12.162Z,44.41
2019-05-14T09:49:18.549Z,44.22
2019-05-14T09:50:23.507Z,44.38
2019-05-14T09:51:28.808Z,44.46
2019-05-14T09:52:32.378Z,44.58
2019-05-14T09:53:38.353Z,44.20
2019-05-14T09:54:43.983Z,43.59
2019-05-14T09:55:49.108Z,44.32
2019-05-14T09:56:52.504Z,44.37
2019-05-14T09:57:58.550Z,44.18
2019-05-14T09:59:01.665Z,42.76
2019-05-14T10:00:09.101Z,42.85
2019-05-14T10:01:12.736Z,42.70
2019-05-14T10:02:16.710Z,41.46
2019-05-14T10:03:20.139Z,41.38
2019-05-14T10:04:24.141Z,41.76
2019-05-14T10:05:27.717Z,41.21
2019-05-14T10:06:31.733Z,41.63
2019-05-14T10:07:35.175Z,42.00
2019-05-14T10:08:39.312Z,42.34
2019-05-14T10:09:42.777Z,42.64
2019-05-14T10:10:48.855Z,42.72
2019-05-14T10:11:51.925Z,42.78
2019-05-14T10:12:57.199Z,42.84
2019-05-14T10:14:01.163Z,40.57
2019-05-14T10:15:09.592Z,40.31
2019-05-14T10:16:13.050Z,40.57
2019-05-14T10:17:19.343Z,40.84
2019-05-14T10:18:22.365Z,40.87
2019-05-14T10:19:29.324Z,40.81
2019-05-14T10:20:40.903Z,39.67
2019-05-14T10:21:38.852Z,39.53
2019-05-14T10:22:42.439Z,39.54
2019-05-14T10:23:46.514Z,39.75
2019-05-14T10:24:49.971Z,40.70
2019-05-14T10:25:53.966Z,41.10
2019-05-14T10:26:58.565Z,40.91
2019-05-14T10:28:02.725Z,41.45
2019-05-14T10:29:08.523Z,41.85
2019-05-14T10:30:12.266Z,41.04
2019-05-14T10:31:18.119Z,39.99
2019-05-14T10:32:21.552Z,40.54
2019-05-14T10:33:24.985Z,40.37
2019-05-14T10:34:29.043Z,40.84
2019-05-14T10:35:32.463Z,39.45
2019-05-14T10:36:36.291Z,38.58
2019-05-14T10:37:40.206Z,38.90
2019-05-14T10:38:44.197Z,38.66
2019-05-14T10:39:47.651Z,39.07
2019-05-14T10:40:51.733Z,39.28
2019-05-14T10:41:55.161Z,40.11
2019-05-14T10:42:59.215Z,40.12
2019-05-14T10:44:02.730Z,39.61
2019-05-14T10:45:12.451Z,39.55
2019-05-14T10:46:13.125Z,37.96
2019-05-14T10:47:18.783Z,38.08
2019-05-14T10:48:22.344Z,38.17
2019-05-14T10:49:29.734Z,38.07
2019-05-14T10:50:31.553Z,38.61
2019-05-14T10:51:35.699Z,38.24
2019-05-14T10:52:39.671Z,38.49
2019-05-14T10:53:43.743Z,38.21
2019-05-14T10:54:55.331Z,37.78
2019-05-14T10:55:52.878Z,39.07
2019-05-14T10:56:59.177Z,39.53
2019-05-14T10:58:02.149Z,39.71
2019-05-14T10:59:05.704Z,39.77
2019-05-14T11:00:10.331Z,39.65
2019-05-14T11:01:13.833Z,39.46
2019-05-14T11:02:18.540Z,39.86
2019-05-14T11:03:22.151Z,38.42
2019-05-14T11:04:28.402Z,38.12
2019-05-14T11:05:31.361Z,38.14
2019-05-14T11:06:35.422Z,38.33
2019-05-14T11:07:41.710Z,37.37
2019-05-14T11:08:44.634Z,38.19
2019-05-14T11:09:48.623Z,38.44
2019-05-14T11:10:52.701Z,38.08
2019-05-14T11:11:58.221Z,38.05
2019-05-14T11:13:01.867Z,38.76
2019-05-14T11:14:05.435Z,38.98
2019-05-14T11:15:11.063Z,39.19
2019-05-14T11:16:14.498Z,39.37
2019-05-14T11:17:19.728Z,39.77
2019-05-14T11:18:23.319Z,39.71
2019-05-14T11:19:28.168Z,40.36
2019-05-14T11:20:31.777Z,41.53
2019-05-14T11:21:35.768Z,43.05
2019-05-14T11:22:39.336Z,45.37
2019-05-14T11:23:43.423Z,46.26
2019-05-14T11:24:49.131Z,47.21
2019-05-14T11:25:52.659Z,48.55
2019-05-14T11:26:58.854Z,48.91
2019-05-14T11:28:01.936Z,48.78
2019-05-14T11:29:05.633Z,49.46
2019-05-14T11:30:10.395Z,49.34
2019-05-14T11:31:13.832Z,49.00
2019-05-14T11:32:18.548Z,49.48
2019-05-14T11:33:22.072Z,48.50
2019-05-14T11:34:28.527Z,47.95
2019-05-14T11:35:31.332Z,46.13
2019-05-14T11:36:35.324Z,45.68
2019-05-14T11:37:41.506Z,45.07
2019-05-14T11:38:44.731Z,44.27
2019-05-14T11:39:48.792Z,44.08
2019-05-14T11:40:52.922Z,43.51
2019-05-14T11:41:58.762Z,43.96
2019-05-14T11:43:02.078Z,44.07
2019-05-14T11:44:05.656Z,44.13
2019-05-14T11:45:10.609Z,44.46
2019-05-14T11:46:14.196Z,44.36
2019-05-14T11:47:18.300Z,44.91
2019-05-14T11:48:21.850Z,45.46
2019-05-14T11:49:25.834Z,45.79
2019-05-14T11:50:29.290Z,44.96
2019-05-14T11:51:58.832Z,43.72
2019-05-14T11:52:38.948Z,43.29
2019-05-14T11:53:42.980Z,42.55
2019-05-14T11:54:49.206Z,41.45
2019-05-14T11:55:52.157Z,42.08
2019-05-14T11:56:55.604Z,41.94
2019-05-14T11:57:59.592Z,42.96
2019-05-14T11:59:03.375Z,42.69
2019-05-14T12:00:08.927Z,42.62
2019-05-14T12:01:12.453Z,41.97
2019-05-14T12:02:18.774Z,42.08
2019-05-14T12:03:21.741Z,41.60
2019-05-14T12:04:28.218Z,42.35
2019-05-14T12:05:30.910Z,42.71
2019-05-14T12:06:34.972Z,41.33
2019-05-14T12:07:38.979Z,40.35
2019-05-14T12:08:43.176Z,39.76
2019-05-14T12:09:46.676Z,41.23
2019-05-14T12:10:50.667Z,38.35
2019-05-14T12:11:54.202Z,39.31
2019-05-14T12:12:58.571Z,39.39
2019-05-14T12:14:02.024Z,38.93
2019-05-14T12:15:08.883Z,37.75
2019-05-14T12:16:12.506Z,36.90
2019-05-14T12:17:16.527Z,37.32
2019-05-14T12:18:20.031Z,38.14
2019-05-14T12:19:24.096Z,38.58
2019-05-14T12:20:29.596Z,37.63
2019-05-14T12:21:33.255Z,36.94
2019-05-14T12:22:39.041Z,36.81
2019-05-14T12:23:42.504Z,35.23
2019-05-14T12:24:45.935Z,35.53
2019-05-14T12:25:50.071Z,34.64
2019-05-14T12:26:53.504Z,35.43
2019-05-14T12:27:58.918Z,35.67
2019-05-14T12:29:02.532Z,35.96
2019-05-14T12:30:09.653Z,36.15
2019-05-14T12:31:13.350Z,35.67
2019-05-14T12:32:18.921Z,34.82
2019-05-14T12:33:22.674Z,35.02
2019-05-14T12:34:29.394Z,34.20
2019-05-14T12:35:31.833Z,34.84
2019-05-14T12:36:38.699Z,34.28
2019-05-14T12:37:41.000Z,34.23
2019-05-14T12:38:44.996Z,34.40
2019-05-14T12:39:48.495Z,34.89
2019-05-14T12:40:52.472Z,34.55
2019-05-14T12:41:58.172Z,35.12
2019-05-14T12:43:01.658Z,35.26
2019-05-14T12:44:05.432Z,35.58
2019-05-14T12:45:11.365Z,36.12
2019-05-14T12:46:14.952Z,36.33
2019-05-14T12:47:19.060Z,36.83
2019-05-14T12:48:22.467Z,36.82
2019-05-14T12:49:26.528Z,37.04
2019-05-14T12:50:29.956Z,37.18
2019-05-14T12:51:33.962Z,37.36
2019-05-14T12:52:38.847Z,37.59
2019-05-14T12:53:43.179Z,37.97
2019-05-14T12:54:46.649Z,37.71
2019-05-14T12:55:50.769Z,38.11
2019-05-14T12:56:54.248Z,38.15
2019-05-14T12:57:59.653Z,38.38
2019-05-14T12:59:03.407Z,38.43
2019-05-14T13:00:11.793Z,37.80
2019-05-14T13:01:15.219Z,36.38
2019-05-14T13:02:19.206Z,35.92
2019-05-14T13:03:22.702Z,32.44
2019-05-14T13:04:28.496Z,33.26
2019-05-14T13:05:32.223Z,33.83
2019-05-14T13:06:39.911Z,33.85
2019-05-14T13:07:41.953Z,31.64
2019-05-14T13:08:45.942Z,32.32
2019-05-14T13:09:49.570Z,32.60
2019-05-14T13:10:53.557Z,31.71
2019-05-14T13:11:58.628Z,31.35
2019-05-14T13:13:02.605Z,29.88
2019-05-14T13:14:06.297Z,28.79
2019-05-14T13:15:10.754Z,30.02
2019-05-14T13:16:14.450Z,28.33
2019-05-14T13:17:18.857Z,28.73
2019-05-14T13:18:22.317Z,28.55
2019-05-14T13:19:28.372Z,26.75
2019-05-14T13:20:31.545Z,28.29
2019-05-14T13:21:35.603Z,28.87
2019-05-14T13:22:46.095Z,28.65
2019-05-14T13:23:45.216Z,26.55
2019-05-14T13:24:49.419Z,26.64
2019-05-14T13:25:53.549Z,25.82
2019-05-14T13:26:58.862Z,26.12
2019-05-14T13:28:03.002Z,26.15
2019-05-14T13:29:10.520Z,24.86
2019-05-14T13:30:12.572Z,24.88
2019-05-14T13:31:18.413Z,25.13
2019-05-14T13:32:21.903Z,26.05
2019-05-14T13:33:25.336Z,24.92
2019-05-14T13:34:29.480Z,25.82
2019-05-14T13:35:32.922Z,26.56
2019-05-14T13:36:39.527Z,27.17
2019-05-14T13:37:42.179Z,25.21
2019-05-14T13:38:49.136Z,25.42
2019-05-14T13:39:53.146Z,24.19
2019-05-14T13:40:59.429Z,23.87
2019-05-14T13:42:02.624Z,24.00
2019-05-14T13:43:09.664Z,23.96
2019-05-14T13:44:21.649Z,23.51
2019-05-14T13:45:19.070Z,24.13
2019-05-14T13:46:22.750Z,23.41
2019-05-14T13:47:28.786Z,24.65
2019-05-14T13:48:31.989Z,24.42
2019-05-14T13:49:38.917Z,25.67